Time;durP1;ratioP1;P1;durP2;ratioP2;P2;SDS_P1;SDS_P2;PMS_P1;PMS_P2;Temp;Humidity;BMP_temperature;BMP_pressure;BME280_temperature;BME280_humidity;BME280_pressure;Samples;Min_cycle;Max_cycle;Signal;HPM_P1;HPM_P2
2023/01/29 00:01:25;;;;;;;21.80;10.97;;;;;;;4.28;77.28;99663.56;5071559;28;20446;-76
2023/01/29 00:03:52;;;;;;;27.73;12.97;;;;;;;4.25;77.26;99661.25;5070696;28;20441;-76
2023/01/29 00:06:19;;;;;;;31.03;11.83;;;;;;;4.18;77.28;99645.28;5071383;28;20941;-76
2023/01/29 00:08:50;;;;;;;21.17;11.13;;;;;;;4.25;76.88;99662.06;5071266;28;20965;-76
2023/01/29 00:11:19;;;;;;;14.30;8.97;;;;;;;4.05;77.69;99639.56;5071537;28;20949;-77
2023/01/29 00:13:46;;;;;;;8.93;7.83;;;;;;;4.24;76.87;99664.84;5071568;28;20460;-76
2023/01/29 00:16:13;;;;;;;11.50;8.70;;;;;;;4.36;77.21;99675.00;5071784;28;20273;-76
2023/01/29 00:18:41;;;;;;;8.60;7.50;;;;;;;4.26;76.69;99657.66;5071800;28;20481;-75
2023/01/29 00:21:10;;;;;;;8.07;7.47;;;;;;;4.25;77.31;99672.59;5071403;28;20996;-76
2023/01/29 00:23:37;;;;;;;8.27;7.53;;;;;;;4.24;77.58;99668.31;5071448;28;20574;-76
2023/01/29 00:26:06;;;;;;;7.97;7.27;;;;;;;4.14;78.48;99675.47;5071607;28;20485;-76
2023/01/29 00:28:33;;;;;;;8.13;7.50;;;;;;;4.17;77.66;99675.16;5072003;28;20445;-75
2023/01/29 00:31:07;;;;;;;7.90;7.20;;;;;;;4.28;77.86;99676.72;5081438;28;20252;-75
2023/01/29 00:33:36;;;;;;;8.90;8.13;;;;;;;4.14;78.18;99680.72;5092114;28;20448;-76
2023/01/29 00:36:06;;;;;;;8.17;7.40;;;;;;;4.12;77.78;99682.66;5091619;28;20234;-75
2023/01/29 00:38:34;;;;;;;9.53;7.57;;;;;;;4.09;78.15;99677.69;5091483;28;20506;-76
2023/01/29 00:46:35;;;;;;;8.53;7.83;;;;;;;4.07;77.98;99689.34;5091548;28;20408;-75
2023/01/29 00:49:02;;;;;;;7.43;6.93;;;;;;;4.02;78.13;99681.94;5091781;28;20445;-75
2023/01/29 00:51:29;;;;;;;7.10;6.50;;;;;;;4.04;78.36;99685.22;5095401;28;20444;-74
2023/01/29 00:54:01;;;;;;;7.43;6.93;;;;;;;4.06;78.09;99687.69;5093594;28;20514;-75
2023/01/29 00:56:31;;;;;;;8.83;7.97;;;;;;;4.08;78.30;99688.34;5095385;28;20508;-75
2023/01/29 00:58:58;;;;;;;7.70;7.00;;;;;;;4.05;78.23;99686.88;5095241;28;20689;-76
2023/01/29 01:04:08;;;;;;;8.03;7.37;;;;;;;4.08;77.82;99680.47;5094662;28;20417;-74
2023/01/29 01:06:38;;;;;;;7.87;7.17;;;;;;;4.06;77.49;99683.28;5095244;28;20430;-76
2023/01/29 01:11:52;;;;;;;7.77;7.07;;;;;;;4.11;78.23;99691.53;5094667;28;20867;-76
2023/01/29 01:14:21;;;;;;;8.57;7.77;;;;;;;4.17;77.58;99690.91;5094265;28;20838;-76
2023/01/29 01:16:49;;;;;;;8.50;7.80;;;;;;;4.18;77.86;99687.34;5094518;28;21035;-76
2023/01/29 01:19:16;;;;;;;8.40;7.60;;;;;;;4.12;77.73;99687.91;5094726;28;20441;-76
2023/01/29 01:21:46;;;;;;;8.10;7.60;;;;;;;4.01;78.46;99690.75;5093562;28;20422;-76
2023/01/29 01:24:13;;;;;;;7.63;7.03;;;;;;;4.02;79.01;99692.44;5094279;28;20290;-75
2023/01/29 01:26:43;;;;;;;8.13;7.40;;;;;;;3.93;79.17;99687.25;5094473;28;20502;-75
2023/01/29 01:29:13;;;;;;;8.93;8.13;;;;;;;4.04;79.03;99690.47;5094453;28;20433;-76
2023/01/29 01:31:40;;;;;;;7.60;7.10;;;;;;;3.99;78.44;99690.09;5078659;28;20867;-76
2023/01/29 01:34:07;;;;;;;9.83;7.67;;;;;;;4.05;78.97;99686.88;5074321;28;20195;-76
2023/01/29 01:36:33;;;;;;;8.47;7.80;;;;;;;4.08;78.81;99691.81;5073925;28;20473;-76
2023/01/29 01:39:01;;;;;;;8.40;7.70;;;;;;;4.04;78.59;99690.47;5073656;28;20740;-76
2023/01/29 01:41:30;;;;;;;7.77;7.07;;;;;;;4.10;78.39;99689.88;5073818;28;20874;-77
2023/01/29 01:43:59;;;;;;;9.10;8.30;;;;;;;4.05;78.63;99692.13;5073725;28;21014;-76
2023/01/29 01:46:29;;;;;;;9.87;8.70;;;;;;;3.99;78.99;99697.97;5073530;28;20529;-76
2023/01/29 01:48:59;;;;;;;9.33;8.50;;;;;;;3.98;78.72;99690.25;5074223;28;20491;-76
2023/01/29 01:51:28;;;;;;;8.90;8.17;;;;;;;4.10;78.33;99684.63;5073434;28;20547;-75
2023/01/29 01:54:04;;;;;;;8.50;7.70;;;;;;;4.17;78.65;99685.66;5073346;28;20828;-75
2023/01/29 01:56:39;;;;;;;8.27;7.57;;;;;;;4.22;78.03;99687.84;5085005;28;20480;-75
2023/01/29 01:59:09;;;;;;;7.93;7.23;;;;;;;4.07;77.88;99660.44;5093968;28;20191;-75
2023/01/29 02:01:41;;;;;;;10.03;8.07;;;;;;;4.32;77.66;99694.69;5093599;28;20194;-75
2023/01/29 02:09:46;;;;;;;9.10;7.77;;;;;;;4.35;77.84;99704.91;5093743;28;20408;-75
2023/01/29 02:12:14;;;;;;;10.73;9.67;;;;;;;4.38;77.85;99695.88;5093740;28;20241;-76
2023/01/29 02:14:43;;;;;;;8.40;7.77;;;;;;;4.44;77.57;99697.88;5093616;28;20195;-76
2023/01/29 02:17:13;;;;;;;9.43;8.53;;;;;;;4.41;77.85;99696.38;5093470;28;20202;-76
2023/01/29 02:19:48;;;;;;;9.40;8.50;;;;;;;4.45;77.82;99699.56;5093549;28;20264;-74
2023/01/29 02:22:31;;;;;;;8.30;7.60;;;;;;;4.50;77.69;99706.00;5093537;28;20202;-75
2023/01/29 02:25:31;;;;;;;10.00;9.10;;;;;;;4.59;77.45;99707.72;5093564;28;20283;-75
2023/01/29 02:28:31;;;;;;;9.20;8.33;;;;;;;4.64;77.78;99710.72;5093514;28;20190;-76
2023/01/29 02:31:08;;;;;;;8.73;7.83;;;;;;;4.74;77.81;99716.69;5091617;28;20619;-75
2023/01/29 02:33:45;;;;;;;9.07;8.17;;;;;;;4.73;77.98;99717.69;5093087;28;20202;-75
2023/01/29 02:36:23;;;;;;;8.33;7.67;;;;;;;4.87;77.61;99722.38;5093308;28;20465;-75
2023/01/29 02:39:00;;;;;;;9.57;8.77;;;;;;;4.81;77.66;99717.75;5093042;28;20255;-75
2023/01/29 02:41:35;;;;;;;8.77;8.07;;;;;;;4.88;77.93;99721.41;5093121;28;20179;-75
2023/01/29 02:44:11;;;;;;;8.90;8.20;;;;;;;4.86;77.87;99717.28;5093118;28;20191;-75
2023/01/29 02:46:49;;;;;;;9.20;8.40;;;;;;;4.80;77.80;99713.47;5092892;28;20206;-75
2023/01/29 02:49:24;;;;;;;8.70;8.00;;;;;;;4.90;78.28;99727.34;5093044;28;20555;-75
2023/01/29 02:52:00;;;;;;;9.60;8.80;;;;;;;4.96;77.84;99729.38;5091699;28;20217;-75
2023/01/29 02:54:42;;;;;;;8.23;7.63;;;;;;;5.01;77.71;99723.63;5092715;28;20219;-76
2023/01/29 02:57:19;;;;;;;8.60;7.87;;;;;;;5.02;77.66;99720.84;5092353;28;20226;-76
2023/01/29 02:59:52;;;;;;;9.67;8.87;;;;;;;4.94;77.67;99725.22;5093137;28;20194;-75
2023/01/29 03:02:26;;;;;;;8.37;7.67;;;;;;;4.89;77.92;99722.22;5092948;28;20179;-76
2023/01/29 03:04:59;;;;;;;9.10;8.30;;;;;;;4.85;78.32;99729.63;5092792;28;20646;-75
2023/01/29 03:07:45;;;;;;;8.90;8.17;;;;;;;4.74;78.77;99727.22;5092392;28;20646;-75
2023/01/29 03:10:19;;;;;;;8.87;8.10;;;;;;;4.66;79.32;99735.06;5092972;28;20190;-75
2023/01/29 03:12:54;;;;;;;9.93;9.03;;;;;;;4.36;80.03;99697.81;5092370;28;20190;-75
2023/01/29 03:15:28;;;;;;;15.33;11.47;;;;;;;4.61;79.67;99731.22;5091413;28;20226;-75
2023/01/29 03:18:00;;;;;;;10.27;9.27;;;;;;;4.61;79.82;99734.69;5092676;28;20195;-76
2023/01/29 03:20:33;;;;;;;9.80;8.90;;;;;;;4.49;79.94;99733.28;5092234;28;20584;-76
2023/01/29 03:23:08;;;;;;;9.90;8.93;;;;;;;4.47;79.95;99735.25;5092418;28;20179;-76
2023/01/29 03:34:05;;;;;;;9.70;8.83;;;;;;;4.19;81.67;99746.81;5072007;28;20406;-76
2023/01/29 03:36:38;;;;;;;9.37;8.47;;;;;;;4.12;80.88;99747.53;5071636;28;20458;-76
2023/01/29 03:39:06;;;;;;;9.67;8.80;;;;;;;4.14;81.44;99746.44;5071999;28;20452;-75
2023/01/29 03:41:38;;;;;;;9.80;8.80;;;;;;;4.22;80.77;99746.53;5071282;28;20592;-76
2023/01/29 03:44:17;;;;;;;9.57;8.60;;;;;;;4.33;80.30;99759.44;5072041;28;20204;-77
2023/01/29 03:46:51;;;;;;;9.93;9.03;;;;;;;4.27;80.50;99752.16;5072255;28;20194;-77
2023/01/29 03:49:27;;;;;;;9.47;8.53;;;;;;;4.08;80.83;99749.66;5072211;28;20442;-76
2023/01/29 03:52:00;;;;;;;9.90;8.90;;;;;;;4.16;81.11;99756.78;5070940;28;20545;-76
2023/01/29 03:54:35;;;;;;;9.33;8.47;;;;;;;4.13;80.85;99757.91;5072119;28;20442;-76
2023/01/29 03:57:14;;;;;;;9.33;8.50;;;;;;;4.08;80.72;99762.78;5071883;28;20457;-76
2023/01/29 03:59:51;;;;;;;8.63;7.93;;;;;;;4.14;80.83;99764.84;5071574;28;20488;-75
2023/01/29 04:02:28;;;;;;;9.67;8.13;;;;;;;4.03;81.11;99751.91;5072019;28;20283;-76
2023/01/29 04:04:59;;;;;;;8.23;7.63;;;;;;;3.99;81.68;99765.47;5069798;28;20890;-76
2023/01/29 04:07:28;;;;;;;8.80;8.10;;;;;;;4.10;81.52;99771.38;5071498;28;20446;-75
2023/01/29 04:09:58;;;;;;;8.33;7.63;;;;;;;4.07;81.53;99773.44;5071359;28;20451;-76
2023/01/29 04:12:30;;;;;;;8.13;7.43;;;;;;;4.18;81.38;99776.72;5071454;28;20960;-75
2023/01/29 04:15:01;;;;;;;8.63;7.93;;;;;;;4.14;81.59;99780.59;5070468;28;20437;-75
2023/01/29 04:17:35;;;;;;;8.10;7.50;;;;;;;4.22;81.78;99778.06;5071332;28;20478;-75
2023/01/29 04:20:06;;;;;;;8.47;7.67;;;;;;;4.26;82.09;99781.22;5071931;28;20560;-75
2023/01/29 04:22:35;;;;;;;9.70;8.73;;;;;;;4.23;82.37;99784.97;5071583;28;20450;-76
2023/01/29 04:25:07;;;;;;;9.03;8.23;;;;;;;4.36;82.30;99793.31;5073004;28;20191;-76
2023/01/29 04:27:46;;;;;;;9.27;8.47;;;;;;;4.33;81.81;99784.91;5075511;28;20188;-75
2023/01/29 04:30:23;;;;;;;10.23;9.33;;;;;;;4.17;82.01;99790.81;5078432;28;20179;-75
2023/01/29 04:33:11;;;;;;;9.57;8.27;;;;;;;4.22;82.20;99793.00;5095596;28;20484;-75
2023/01/29 04:36:00;;;;;;;10.03;9.03;;;;;;;4.25;82.42;99793.53;5095129;28;20995;-76
2023/01/29 04:38:40;;;;;;;9.70;8.73;;;;;;;4.32;82.33;99799.84;5095157;28;20195;-76
2023/01/29 04:41:16;;;;;;;11.27;8.97;;;;;;;4.42;82.23;99795.34;5095272;28;20485;-75
2023/01/29 04:43:50;;;;;;;10.47;9.17;;;;;;;4.37;82.26;99797.59;5095861;28;20191;-75
2023/01/29 04:46:22;;;;;;;10.43;9.33;;;;;;;4.41;81.91;99801.56;5095688;28;20194;-76
2023/01/29 04:49:06;;;;;;;10.33;9.33;;;;;;;4.28;82.59;99787.97;5094979;28;20433;-76
2023/01/29 04:51:46;;;;;;;10.60;9.57;;;;;;;4.30;82.44;99801.78;5094804;28;20445;-75
2023/01/29 04:54:22;;;;;;;10.63;9.53;;;;;;;4.29;82.81;99805.41;5095048;28;20429;-75
2023/01/29 04:56:55;;;;;;;10.43;9.37;;;;;;;4.30;83.31;99806.22;5094734;28;20253;-75
2023/01/29 04:59:28;;;;;;;9.40;8.60;;;;;;;4.34;83.37;99813.66;5094777;28;20183;-75
2023/01/29 05:01:55;;;;;;;27.10;16.00;;;;;;;4.41;83.50;99814.72;5095116;28;20183;-75
2023/01/29 05:04:29;;;;;;;12.20;10.13;;;;;;;4.45;83.64;99805.56;5093711;28;20195;-75
2023/01/29 05:06:57;;;;;;;8.70;8.00;;;;;;;4.48;84.16;99820.22;5076947;28;20490;-75
2023/01/29 05:09:26;;;;;;;8.47;7.67;;;;;;;4.46;84.62;99822.19;5094828;28;20202;-75
2023/01/29 05:11:53;;;;;;;9.00;8.20;;;;;;;4.53;84.51;99824.06;5094556;27;20190;-73
2023/01/29 05:14:24;;;;;;;9.17;8.37;;;;;;;4.57;84.39;99821.94;5094815;28;20210;-75
2023/01/29 05:16:54;;;;;;;9.93;8.97;;;;;;;4.53;83.60;99818.78;5094427;28;20607;-75
2023/01/29 05:19:21;;;;;;;10.10;9.10;;;;;;;4.52;84.45;99819.78;5094905;28;20203;-75
2023/01/29 05:21:50;;;;;;;10.83;9.67;;;;;;;4.57;84.47;99819.31;5093226;28;20244;-75
2023/01/29 05:24:19;;;;;;;10.60;9.60;;;;;;;4.67;84.29;99828.81;5093980;28;20199;-75
2023/01/29 05:29:32;;;;;;;10.73;9.50;;;;;;;4.71;83.87;99822.22;5094706;28;20939;-75
2023/01/29 05:31:59;;;;;;;14.37;11.40;;;;;;;4.61;83.68;99833.81;5075842;28;20690;-75
2023/01/29 05:34:27;;;;;;;10.43;9.43;;;;;;;4.64;84.12;99826.47;5073732;28;20564;-75
2023/01/29 05:36:55;;;;;;;10.10;9.20;;;;;;;4.48;83.72;99814.94;5073361;28;20606;-75
2023/01/29 05:39:22;;;;;;;11.90;9.67;;;;;;;4.56;83.98;99828.19;5073931;28;21008;-75
2023/01/29 05:41:48;;;;;;;10.03;9.10;;;;;;;4.55;84.22;99831.78;5073741;28;20191;-75
2023/01/29 05:44:15;;;;;;;11.93;10.60;;;;;;;4.49;83.77;99835.84;5073943;28;20495;-75
2023/01/29 05:46:42;;;;;;;11.67;10.47;;;;;;;4.51;84.17;99835.69;5073943;28;20249;-75
2023/01/29 05:49:10;;;;;;;11.43;10.30;;;;;;;4.51;84.16;99839.16;5073836;28;20196;-75
2023/01/29 05:51:37;;;;;;;12.10;10.87;;;;;;;4.48;83.63;99836.00;5073977;28;20253;-75
2023/01/29 05:54:10;;;;;;;13.70;11.63;;;;;;;4.49;83.81;99846.38;5074198;28;20454;-76
2023/01/29 05:56:37;;;;;;;13.33;11.23;;;;;;;4.42;84.34;99850.56;5073762;28;20236;-76
2023/01/29 05:59:05;;;;;;;12.53;11.23;;;;;;;4.46;84.07;99854.53;5073939;28;20192;-75
2023/01/29 06:01:32;;;;;;;16.13;10.57;;;;;;;4.48;84.06;99863.13;5073425;28;20261;-75
2023/01/29 06:03:59;;;;;;;12.10;10.77;;;;;;;4.50;84.21;99855.09;5071924;28;20196;-76
2023/01/29 06:06:27;;;;;;;10.33;9.27;;;;;;;4.60;82.90;99861.94;5073423;28;20446;-76
2023/01/29 06:08:55;;;;;;;11.20;9.97;;;;;;;4.60;83.22;99872.47;5073752;28;20430;-75
2023/01/29 06:11:26;;;;;;;9.63;8.63;;;;;;;4.62;83.12;99875.75;5073423;28;20204;-76
2023/01/29 06:13:53;;;;;;;12.33;10.20;;;;;;;4.56;82.96;99873.75;5072376;28;20188;-76
2023/01/29 06:16:21;;;;;;;10.70;9.30;;;;;;;4.43;83.64;99875.06;5072753;28;20277;-75
2023/01/29 06:18:48;;;;;;;10.63;9.63;;;;;;;4.35;84.78;99873.19;5072943;28;20200;-75
2023/01/29 06:21:14;;;;;;;9.67;8.73;;;;;;;4.38;84.62;99872.88;5072763;28;20195;-76
2023/01/29 06:23:41;;;;;;;9.67;8.83;;;;;;;4.28;85.41;99872.09;5072834;28;20245;-75
2023/01/29 06:26:11;;;;;;;16.70;12.77;;;;;;;4.39;85.37;99874.53;5072456;28;20219;-76
2023/01/29 06:28:39;;;;;;;10.03;9.07;;;;;;;4.42;85.30;99881.31;5072489;28;20625;-75
2023/01/29 06:31:07;;;;;;;11.63;10.53;;;;;;;4.38;84.32;99890.47;5083534;28;20253;-75
2023/01/29 06:33:34;;;;;;;10.53;9.53;;;;;;;4.35;84.74;99890.75;5093259;28;20240;-76
2023/01/29 06:36:02;;;;;;;7.93;7.23;;;;;;;4.26;83.82;99889.84;5092693;28;20618;-78
2023/01/29 06:38:29;;;;;;;8.17;7.43;;;;;;;4.29;84.62;99893.97;5093140;28;20187;-76
2023/01/29 06:40:57;;;;;;;8.90;8.07;;;;;;;4.19;84.25;99894.03;5092995;28;20441;-77
2023/01/29 06:43:24;;;;;;;9.27;8.30;;;;;;;4.20;84.04;99900.09;5092701;28;20502;-77
2023/01/29 06:45:54;;;;;;;7.60;6.97;;;;;;;4.24;83.65;99904.09;5092473;28;20445;-76
2023/01/29 06:48:22;;;;;;;9.13;8.33;;;;;;;4.30;83.85;99906.94;5092177;28;20468;-77
2023/01/29 06:50:49;;;;;;;9.10;8.20;;;;;;;4.35;83.16;99910.00;5092846;28;20495;-78
2023/01/29 06:53:16;;;;;;;8.70;8.00;;;;;;;4.48;83.00;99914.88;5092880;28;20447;-78
2023/01/29 06:55:44;;;;;;;8.70;7.80;;;;;;;4.41;82.04;99919.09;5092303;28;20437;-77
2023/01/29 06:58:12;;;;;;;8.23;7.43;;;;;;;4.38;82.04;99929.91;5092098;28;20219;-77
2023/01/29 07:00:39;;;;;;;7.87;7.17;;;;;;;4.45;82.48;99916.00;5092369;28;20191;-73
2023/01/29 07:03:10;;;;;;;7.10;6.50;;;;;;;4.50;82.17;99924.28;5092423;28;20445;-73
2023/01/29 07:05:36;;;;;;;7.07;6.50;;;;;;;4.54;81.46;99925.66;5092315;28;20648;-74
2023/01/29 07:08:04;;;;;;;8.60;7.93;;;;;;;4.50;82.15;99929.53;5092032;28;20478;-75
2023/01/29 07:10:30;;;;;;;7.23;6.63;;;;;;;4.42;82.62;99924.19;5092358;28;20191;-74
2023/01/29 07:12:59;;;;;;;11.40;8.80;;;;;;;4.49;82.88;99927.91;5092708;28;20441;-75
2023/01/29 07:15:25;;;;;;;9.13;7.47;;;;;;;4.52;82.81;99922.34;5092035;28;20199;-77
2023/01/29 07:17:57;;;;;;;7.43;6.80;;;;;;;4.57;83.57;99928.00;5091974;28;20727;-74
2023/01/29 07:20:26;;;;;;;8.93;8.13;;;;;;;4.63;83.17;99937.94;5091872;28;20892;-75
2023/01/29 07:22:53;;;;;;;6.73;6.13;;;;;;;4.50;83.57;99939.25;5092234;28;20186;-75
2023/01/29 07:25:20;;;;;;;7.73;7.13;;;;;;;4.41;84.93;99930.44;5092221;28;20528;-74
2023/01/29 07:27:47;;;;;;;8.40;7.70;;;;;;;4.35;84.97;99925.78;5092288;28;20183;-76
2023/01/29 07:30:15;;;;;;;10.57;9.60;;;;;;;4.51;85.36;99939.13;5092048;28;20198;-77
2023/01/29 07:32:42;;;;;;;9.63;8.73;;;;;;;4.60;85.04;99935.59;5092245;28;20191;-75
2023/01/29 07:35:09;;;;;;;9.80;8.83;;;;;;;4.59;85.19;99930.47;5091668;28;20241;-75
2023/01/29 07:37:37;;;;;;;8.97;8.07;;;;;;;4.66;84.92;99932.38;5092051;28;20287;-74
2023/01/29 07:40:10;;;;;;;6.73;6.23;;;;;;;4.59;84.85;99939.22;5092061;28;20203;-74
2023/01/29 07:42:38;;;;;;;6.63;6.23;;;;;;;4.59;84.05;99939.22;5092107;28;20206;-73
2023/01/29 07:45:06;;;;;;;7.50;6.97;;;;;;;4.57;84.03;99933.25;5086622;28;20263;-72
2023/01/29 07:47:33;;;;;;;6.20;5.80;;;;;;;4.60;84.50;99940.03;5091356;28;20441;-73
2023/01/29 07:50:00;;;;;;;6.40;5.90;;;;;;;4.62;84.39;99938.91;5091760;28;20220;-73
2023/01/29 07:52:29;;;;;;;6.60;5.90;;;;;;;4.69;84.88;99937.34;5091904;28;20441;-74
2023/01/29 07:54:57;;;;;;;7.03;6.53;;;;;;;4.47;85.74;99932.50;5093408;28;20437;-69
2023/01/29 07:57:24;;;;;;;6.30;5.80;;;;;;;4.56;85.61;99942.13;5112342;28;20476;-68
2023/01/29 07:59:50;;;;;;;6.93;6.43;;;;;;;4.70;85.81;99941.63;5114943;28;20882;-67
2023/01/29 08:02:17;;;;;;;7.77;7.03;;;;;;;4.77;86.60;99945.31;5115457;28;20658;-67
2023/01/29 08:04:44;;;;;;;6.33;5.93;;;;;;;4.83;86.05;99946.53;5115738;28;20501;-67
2023/01/29 08:07:10;;;;;;;7.87;7.27;;;;;;;4.91;86.51;99950.06;5115448;27;20243;-67
2023/01/29 08:09:38;;;;;;;7.37;6.87;;;;;;;5.06;86.57;99947.75;5115829;28;20555;-66
2023/01/29 08:12:07;;;;;;;7.87;7.30;;;;;;;5.21;86.35;99952.34;5114925;28;20201;-67
2023/01/29 08:14:33;;;;;;;5.93;5.50;;;;;;;5.20;85.85;99950.66;5115460;27;20857;-68
2023/01/29 08:17:00;;;;;;;6.77;6.10;;;;;;;5.16;85.67;99933.53;5115337;28;20218;-66
2023/01/29 08:19:27;;;;;;;6.93;6.13;;;;;;;5.28;85.89;99953.38;5116088;28;20202;-67
2023/01/29 08:21:54;;;;;;;6.40;6.00;;;;;;;5.30;86.22;99958.50;5116264;28;20198;-68
2023/01/29 08:24:20;;;;;;;6.77;6.20;;;;;;;5.46;85.28;99964.75;5115887;28;20199;-67
2023/01/29 08:26:47;;;;;;;6.93;6.43;;;;;;;5.59;84.04;99966.97;5115102;28;20236;-68
2023/01/29 08:29:15;;;;;;;6.77;6.17;;;;;;;5.50;84.16;99960.00;5114600;27;20198;-67
2023/01/29 08:31:42;;;;;;;6.27;5.87;;;;;;;5.45;84.50;99972.78;5099828;28;20548;-67
2023/01/29 08:34:09;;;;;;;5.93;5.57;;;;;;;5.50;84.71;99960.84;5095292;28;20192;-67
2023/01/29 08:36:36;;;;;;;8.03;5.67;;;;;;;5.41;84.93;99969.66;5094752;28;20577;-67
2023/01/29 08:39:02;;;;;;;6.10;5.70;;;;;;;5.24;85.38;99967.81;5094932;28;20612;-68
2023/01/29 08:41:29;;;;;;;7.20;6.60;;;;;;;5.38;85.32;99969.94;5094916;28;20259;-68
2023/01/29 08:43:56;;;;;;;6.10;5.70;;;;;;;5.22;85.68;99963.69;5094548;28;20249;-66
2023/01/29 08:46:24;;;;;;;7.33;6.73;;;;;;;5.19;85.63;99969.28;5094880;28;20195;-72
2023/01/29 08:48:51;;;;;;;6.93;6.43;;;;;;;5.18;85.74;99973.72;5094452;28;20580;-67
2023/01/29 08:51:18;;;;;;;6.67;6.17;;;;;;;4.99;86.52;99973.84;5094773;28;20248;-67
2023/01/29 08:53:45;;;;;;;9.70;8.90;;;;;;;5.16;86.59;99980.91;5094639;28;20723;-66
2023/01/29 08:56:11;;;;;;;9.70;8.80;;;;;;;5.22;86.45;99980.34;5094753;28;20199;-67
2023/01/29 08:58:38;;;;;;;6.93;6.43;;;;;;;5.26;85.92;99983.47;5091350;28;20280;-67
2023/01/29 09:01:09;;;;;;;7.63;7.03;;;;;;;5.09;86.53;99977.25;5094491;28;20248;-67
2023/01/29 09:03:39;;;;;;;9.33;8.40;;;;;;;5.16;86.94;99972.19;5084772;28;20191;-66
2023/01/29 09:06:07;;;;;;;8.27;7.60;;;;;;;5.14;87.35;99974.16;5083704;28;20193;-66
2023/01/29 09:08:33;;;;;;;7.73;7.13;;;;;;;5.11;87.83;99967.38;5083351;28;20663;-66
2023/01/29 09:11:00;;;;;;;7.63;7.03;;;;;;;5.16;87.60;99978.28;5074411;28;20193;-65
2023/01/29 09:13:27;;;;;;;14.90;7.90;;;;;;;5.22;87.37;99975.06;5074106;28;20590;-70
2023/01/29 09:15:53;;;;;;;8.07;7.57;;;;;;;5.24;87.05;99967.81;5074265;28;20188;-68
2023/01/29 09:18:21;;;;;;;9.27;7.67;;;;;;;5.34;86.66;99975.66;5088081;28;20226;-74
2023/01/29 09:20:49;;;;;;;9.43;8.43;;;;;;;5.38;87.00;99971.75;5094119;28;20656;-68
2023/01/29 09:23:15;;;;;;;8.70;7.83;;;;;;;5.53;86.94;99980.78;5094170;28;20190;-69
2023/01/29 09:25:42;;;;;;;7.20;6.70;;;;;;;5.51;85.76;99965.13;5093739;28;20300;-68
2023/01/29 09:28:09;;;;;;;9.40;6.90;;;;;;;5.39;86.00;99966.31;5093961;28;20244;-70
2023/01/29 09:30:36;;;;;;;8.20;7.53;;;;;;;5.31;86.87;99970.72;5104859;28;20230;-68
2023/01/29 09:33:03;;;;;;;14.03;10.00;;;;;;;5.48;86.76;99977.78;5093766;28;20235;-67
2023/01/29 09:35:30;;;;;;;8.70;8.10;;;;;;;5.53;86.20;99972.88;5093575;28;20195;-67
2023/01/29 09:37:58;;;;;;;13.13;8.47;;;;;;;5.48;86.07;99970.69;5094078;28;20218;-66
2023/01/29 09:40:30;;;;;;;10.23;9.37;;;;;;;5.47;86.06;99966.41;5093672;28;20666;-68
2023/01/29 09:43:02;;;;;;;12.13;11.03;;;;;;;5.64;85.82;99975.28;5093823;28;20655;-67
2023/01/29 09:45:30;;;;;;;9.70;8.90;;;;;;;5.74;84.48;99976.84;5091520;28;20214;-68
2023/01/29 09:48:00;;;;;;;11.67;10.57;;;;;;;5.47;85.77;99960.28;5094144;28;20198;-67
2023/01/29 09:50:36;;;;;;;10.77;9.77;;;;;;;5.52;85.34;99961.50;5093747;28;20250;-67
2023/01/29 09:53:13;;;;;;;8.67;7.97;;;;;;;5.50;84.52;99963.47;5093665;28;20191;-65
2023/01/29 09:55:45;;;;;;;8.20;7.50;;;;;;;5.42;84.59;99950.22;5093410;28;20241;-66
2023/01/29 09:58:18;;;;;;;8.23;7.63;;;;;;;5.38;84.78;99951.50;5093181;28;20593;-67
2023/01/29 10:00:51;;;;;;;7.43;6.93;;;;;;;5.33;85.47;99959.03;5093711;28;20244;-66
2023/01/29 10:03:30;;;;;;;7.23;6.73;;;;;;;5.26;86.38;99949.25;5091611;28;20715;-67
2023/01/29 10:06:12;;;;;;;6.43;5.97;;;;;;;5.34;85.31;99946.69;5114076;28;20247;-68
2023/01/29 10:09:02;;;;;;;9.40;8.50;;;;;;;5.46;85.07;99948.94;5113800;28;20666;-68
2023/01/29 10:11:39;;;;;;;10.77;8.77;;;;;;;5.60;84.43;99948.38;5113924;27;20618;-67
2023/01/29 10:14:18;;;;;;;7.70;7.10;;;;;;;5.61;84.14;99950.03;5113410;28;20179;-67
2023/01/29 10:17:02;;;;;;;7.87;6.30;;;;;;;5.61;84.17;99938.69;5110298;28;20190;-69
2023/01/29 10:19:50;;;;;;;10.00;9.00;;;;;;;5.55;83.93;99934.84;5113801;28;20542;-69
2023/01/29 10:22:39;;;;;;;8.53;7.83;;;;;;;5.64;83.70;99935.75;5113848;28;20190;-70
2023/01/29 10:25:12;;;;;;;9.03;7.20;;;;;;;5.62;83.86;99930.63;5113254;28;20235;-68
2023/01/29 10:27:41;;;;;;;7.90;7.20;;;;;;;5.77;83.35;99933.53;5113307;28;20614;-69
2023/01/29 10:30:27;;;;;;;7.97;7.27;;;;;;;5.74;82.97;99924.13;5111080;28;20273;-69
2023/01/29 10:32:55;;;;;;;8.23;7.53;;;;;;;5.82;83.10;99925.16;5092600;28;20273;-69
2023/01/29 10:35:24;;;;;;;6.43;6.03;;;;;;;5.88;81.84;99921.94;5093225;28;20273;-69
2023/01/29 10:37:53;;;;;;;7.53;6.80;;;;;;;6.03;81.92;99928.25;5092258;28;20771;-70
2023/01/29 10:40:23;;;;;;;6.60;6.07;;;;;;;6.01;81.61;99919.69;5093074;28;20230;-69
2023/01/29 10:42:57;;;;;;;16.13;7.70;;;;;;;6.18;80.79;99913.50;5092961;28;20198;-68
2023/01/29 10:45:31;;;;;;;6.10;5.63;;;;;;;6.07;81.44;99908.50;5093327;28;20203;-72
2023/01/29 10:48:35;;;;;;;7.77;7.17;;;;;;;5.94;80.60;99913.38;5092934;28;20248;-74
2023/01/29 10:51:13;;;;;;;6.37;5.87;;;;;;;6.02;80.58;99909.00;5092313;28;20194;-75
2023/01/29 10:53:52;;;;;;;6.07;5.40;;;;;;;6.00;80.35;99900.41;5092615;28;20193;-69
2023/01/29 10:56:39;;;;;;;6.73;6.33;;;;;;;6.19;80.18;99904.59;5092401;28;20194;-76
2023/01/29 10:59:20;;;;;;;6.60;6.00;;;;;;;6.21;79.98;99900.00;5091962;28;20690;-72
2023/01/29 11:01:47;;;;;;;7.00;6.40;;;;;;;6.34;79.44;99895.94;5091753;28;20244;-72
2023/01/29 11:04:15;;;;;;;6.83;6.37;;;;;;;6.48;78.83;99902.41;5092368;28;20659;-73
2023/01/29 11:06:42;;;;;;;11.07;6.60;;;;;;;6.57;78.20;99897.00;5091774;28;20196;-72
2023/01/29 11:09:14;;;;;;;9.90;8.60;;;;;;;6.51;77.99;99902.94;5092858;28;20195;-72
2023/01/29 11:11:47;;;;;;;6.47;5.97;;;;;;;6.50;77.17;99906.56;5092675;28;20180;-71
2023/01/29 11:14:21;;;;;;;5.70;5.37;;;;;;;6.50;77.45;99897.81;5092858;28;20191;-72
2023/01/29 11:16:49;;;;;;;5.40;5.10;;;;;;;6.69;76.47;99895.72;5092284;28;20183;-72
2023/01/29 11:19:16;;;;;;;5.37;4.97;;;;;;;6.72;76.94;99894.56;5092753;28;20228;-72
2023/01/29 11:21:56;;;;;;;5.83;5.50;;;;;;;6.73;76.74;99898.88;5092323;28;20194;-72
2023/01/29 11:24:23;;;;;;;6.60;6.20;;;;;;;6.73;77.01;99890.97;5092165;28;20183;-77
2023/01/29 11:26:54;;;;;;;6.50;6.00;;;;;;;6.80;76.16;99897.22;5092232;28;20284;-74
2023/01/29 11:29:37;;;;;;;6.00;5.60;;;;;;;6.67;75.97;99886.31;5092601;28;20192;-73
2023/01/29 11:32:06;;;;;;;5.73;5.33;;;;;;;6.62;76.18;99878.06;5073374;28;20321;-73
2023/01/29 11:34:34;;;;;;;6.63;6.03;;;;;;;6.62;75.63;99868.31;5071324;28;20192;-74
2023/01/29 11:37:02;;;;;;;7.10;6.60;;;;;;;6.82;76.09;99868.88;5072077;28;20282;-73
2023/01/29 11:39:31;;;;;;;6.53;6.13;;;;;;;6.85;75.35;99852.66;5071572;28;20219;-73
2023/01/29 11:42:02;;;;;;;6.80;6.30;;;;;;;7.04;75.45;99857.66;5072248;28;20195;-75
2023/01/29 11:44:32;;;;;;;5.83;5.43;;;;;;;7.13;74.71;99856.66;5071534;28;20246;-74
2023/01/29 11:47:11;;;;;;;7.87;7.17;;;;;;;7.21;73.58;99860.13;5071536;28;20313;-72
2023/01/29 11:49:41;;;;;;;6.40;6.00;;;;;;;7.23;73.66;99857.31;5071736;28;20617;-72
2023/01/29 11:52:11;;;;;;;10.03;6.50;;;;;;;7.30;73.36;99855.66;5072234;28;20188;-72
2023/01/29 11:54:44;;;;;;;6.43;5.93;;;;;;;7.27;72.86;99858.66;5070744;28;20627;-72
2023/01/29 11:57:27;;;;;;;6.93;6.43;;;;;;;7.33;72.83;99863.25;5070538;28;20188;-72
2023/01/29 11:59:56;;;;;;;6.33;5.93;;;;;;;7.15;72.26;99854.69;5071472;28;20214;-72
2023/01/29 12:02:29;;;;;;;10.43;5.37;;;;;;;7.13;72.36;99848.72;5071896;28;20245;-72
2023/01/29 12:05:00;;;;;;;5.53;5.13;;;;;;;7.21;72.40;99848.72;5071792;28;20188;-72
2023/01/29 12:07:28;;;;;;;27.93;6.87;;;;;;;7.08;72.20;99843.13;5072330;28;20577;-72
2023/01/29 12:09:58;;;;;;;5.57;5.00;;;;;;;7.05;72.65;99851.38;5072832;28;20210;-72
2023/01/29 12:12:33;;;;;;;6.37;5.77;;;;;;;7.14;72.56;99848.56;5071777;28;20211;-72
2023/01/29 12:15:19;;;;;;;5.63;5.33;;;;;;;6.95;72.59;99837.50;5071741;28;20186;-71
2023/01/29 12:17:58;;;;;;;6.40;5.77;;;;;;;6.95;72.25;99842.78;5068616;28;20237;-71
2023/01/29 12:20:30;;;;;;;6.17;5.77;;;;;;;7.06;72.88;99829.28;5071396;28;20644;-71
2023/01/29 12:23:04;;;;;;;6.23;5.73;;;;;;;7.04;72.46;99826.78;5071610;28;20247;-73
2023/01/29 12:25:44;;;;;;;6.90;6.40;;;;;;;7.08;72.42;99835.19;5071771;28;20233;-71